Terminal Aerodrome Forecast
Issued by NWS Albuquerque, NM

Home | Current Version | Previous Version | Text Only | Print | Product List | Glossary On
Versions: 1 2 3 4 5 6 7 8 9 10 11 12 13 14 15 16
259
FTUS45 KABQ 220522
TAFABQ
TAF
KABQ 220522Z 2206/2306 35013KT P6SM SKC
     FM220700 36006KT P6SM SKC
     FM221700 30008KT P6SM SKC
     FM230200 33006KT P6SM SKC=

USA.gov is the U.S. government's official web portal to all federal, state and local government web resources and services.